Time;durP1;ratioP1;P1;durP2;ratioP2;P2;SDS_P1;SDS_P2;PMS_P1;PMS_P2;Temp;Humidity;BMP_temperature;BMP_pressure;BME280_temperature;BME280_humidity;BME280_pressure;Samples;Min_cycle;Max_cycle;Signal;HPM_P1;HPM_P2
2024/01/10 00:01:34;;;;;;;32.13;16.20;;;;;;;;;;5029821;28;20295;-63
2024/01/10 00:04:00;;;;;;;32.53;14.30;;;;;;;;;;5030322;28;20300;-63
2024/01/10 00:06:26;;;;;;;32.83;14.67;;;;;;;;;;5029929;28;20129;-64
2024/01/10 00:08:52;;;;;;;34.57;16.87;;;;;;;;;;5030469;28;20427;-63
2024/01/10 00:11:19;;;;;;;35.97;16.77;;;;;;;;;;5030100;28;20287;-63
2024/01/10 00:13:45;;;;;;;30.00;16.40;;;;;;;;;;5029630;28;20342;-63
2024/01/10 00:16:13;;;;;;;30.07;15.20;;;;;;;;;;5030318;28;20312;-63
2024/01/10 00:18:40;;;;;;;34.20;16.23;;;;;;;;;;5029902;28;20041;-64
2024/01/10 00:21:06;;;;;;;33.00;15.87;;;;;;;;;;5029325;28;20674;-64
2024/01/10 00:23:32;;;;;;;31.03;14.97;;;;;;;;;;5029892;28;20857;-63
2024/01/10 00:25:58;;;;;;;36.47;16.60;;;;;;;;;;5028749;28;20837;-63
2024/01/10 00:28:25;;;;;;;35.63;15.50;;;;;;;;;;5029953;28;20284;-64
2024/01/10 00:30:51;;;;;;;29.70;16.17;;;;;;;;;;5029640;28;20041;-63
2024/01/10 00:33:17;;;;;;;37.90;17.00;;;;;;;;;;5029400;28;20280;-63
2024/01/10 00:35:44;;;;;;;28.77;15.77;;;;;;;;;;5029219;28;20064;-63
2024/01/10 00:38:10;;;;;;;31.30;15.53;;;;;;;;;;5029230;28;20345;-63
2024/01/10 00:40:36;;;;;;;31.23;15.63;;;;;;;;;;5029286;28;20299;-63
2024/01/10 00:43:02;;;;;;;28.80;16.43;;;;;;;;;;5029935;28;20610;-63
2024/01/10 00:45:28;;;;;;;31.70;15.23;;;;;;;;;;5029345;28;20300;-63
2024/01/10 00:47:54;;;;;;;34.93;16.77;;;;;;;;;;5029569;28;20288;-63
2024/01/10 00:50:21;;;;;;;32.10;15.80;;;;;;;;;;5029284;28;20303;-63
2024/01/10 00:52:47;;;;;;;30.93;15.17;;;;;;;;;;5029556;28;20302;-63
2024/01/10 00:55:13;;;;;;;30.83;15.33;;;;;;;;;;5029319;28;20418;-63
2024/01/10 00:57:39;;;;;;;32.30;15.50;;;;;;;;;;5029317;28;20319;-63
2024/01/10 01:00:09;;;;;;;34.80;18.07;;;;;;;;;;5028751;28;20292;-63
2024/01/10 01:02:35;;;;;;;32.90;14.83;;;;;;;;;;5029020;28;20348;-64
2024/01/10 01:05:01;;;;;;;31.03;15.27;;;;;;;;;;5029599;28;20334;-63
2024/01/10 01:07:27;;;;;;;32.83;15.60;;;;;;;;;;5028934;28;20299;-63
2024/01/10 01:09:53;;;;;;;31.33;15.20;;;;;;;;;;5028186;28;20789;-63
2024/01/10 01:12:19;;;;;;;31.97;15.07;;;;;;;;;;5029175;28;20346;-63
2024/01/10 01:14:45;;;;;;;30.30;14.70;;;;;;;;;;5028643;28;20132;-63
2024/01/10 01:17:11;;;;;;;33.80;15.70;;;;;;;;;;5029178;28;20320;-63
2024/01/10 01:19:37;;;;;;;31.53;15.10;;;;;;;;;;5027429;28;20381;-63
2024/01/10 01:22:03;;;;;;;34.00;15.97;;;;;;;;;;5029302;28;20781;-64
2024/01/10 01:24:29;;;;;;;29.70;15.53;;;;;;;;;;5028980;28;20072;-63
2024/01/10 01:26:55;;;;;;;27.47;15.43;;;;;;;;;;5028335;28;20350;-63
2024/01/10 01:29:21;;;;;;;31.67;15.07;;;;;;;;;;5029142;28;20049;-63
2024/01/10 01:31:48;;;;;;;31.30;15.50;;;;;;;;;;5027916;28;20049;-63
2024/01/10 01:34:14;;;;;;;27.30;14.87;;;;;;;;;;5028652;28;20334;-63
2024/01/10 01:36:40;;;;;;;33.17;15.60;;;;;;;;;;5028626;28;20777;-63
2024/01/10 01:39:06;;;;;;;36.53;17.17;;;;;;;;;;5027851;28;20124;-63
2024/01/10 01:41:32;;;;;;;31.30;15.10;;;;;;;;;;5028956;28;20334;-63
2024/01/10 01:43:58;;;;;;;30.27;14.80;;;;;;;;;;5028392;28;20296;-63
2024/01/10 01:46:24;;;;;;;35.40;17.33;;;;;;;;;;5029020;28;20594;-64
2024/01/10 01:48:52;;;;;;;29.27;13.90;;;;;;;;;;5027183;28;20305;-63
2024/01/10 01:51:18;;;;;;;26.90;14.63;;;;;;;;;;5026837;28;20723;-63
2024/01/10 01:53:45;;;;;;;30.33;14.40;;;;;;;;;;5028327;28;20402;-64
2024/01/10 01:56:13;;;;;;;30.10;15.17;;;;;;;;;;5028818;28;20290;-63
2024/01/10 01:58:39;;;;;;;29.57;16.33;;;;;;;;;;5028317;28;20324;-64
2024/01/10 02:01:05;;;;;;;29.00;14.40;;;;;;;;;;5028578;28;20288;-63
2024/01/10 02:03:32;;;;;;;30.13;16.23;;;;;;;;;;5028435;28;20284;-63
2024/01/10 02:05:59;;;;;;;31.03;15.87;;;;;;;;;;5028498;28;20354;-63
2024/01/10 02:08:25;;;;;;;25.63;14.70;;;;;;;;;;5028299;28;20793;-64
2024/01/10 02:10:51;;;;;;;28.77;15.10;;;;;;;;;;5027146;28;20300;-64
2024/01/10 02:13:17;;;;;;;28.17;14.00;;;;;;;;;;5028272;28;20291;-64
2024/01/10 02:15:43;;;;;;;25.60;13.57;;;;;;;;;;5028275;28;20732;-63
2024/01/10 02:18:12;;;;;;;30.67;15.40;;;;;;;;;;5027293;28;20345;-64
2024/01/10 02:20:38;;;;;;;27.03;14.03;;;;;;;;;;5027277;28;20782;-63
2024/01/10 02:23:04;;;;;;;30.23;14.67;;;;;;;;;;5026947;28;20546;-64
2024/01/10 02:25:30;;;;;;;31.57;15.23;;;;;;;;;;5028028;28;20350;-63
2024/01/10 02:27:56;;;;;;;27.93;12.93;;;;;;;;;;5026887;28;20308;-64
2024/01/10 02:30:22;;;;;;;36.10;16.57;;;;;;;;;;5027864;28;20284;-64
2024/01/10 02:32:48;;;;;;;31.17;14.93;;;;;;;;;;5028449;28;20651;-64
2024/01/10 02:35:14;;;;;;;29.27;14.80;;;;;;;;;;5027885;28;20327;-64
2024/01/10 02:37:40;;;;;;;30.10;12.97;;;;;;;;;;5028102;28;20801;-64
2024/01/10 02:40:06;;;;;;;29.43;13.23;;;;;;;;;;5028218;28;20315;-64
2024/01/10 02:42:32;;;;;;;31.00;12.63;;;;;;;;;;5027251;28;20200;-63
2024/01/10 02:44:58;;;;;;;29.33;14.87;;;;;;;;;;5027147;28;20311;-64
2024/01/10 02:47:24;;;;;;;29.67;13.30;;;;;;;;;;5028189;28;20288;-63
2024/01/10 02:49:50;;;;;;;30.73;14.77;;;;;;;;;;5028008;28;20761;-63
2024/01/10 02:52:17;;;;;;;26.87;13.33;;;;;;;;;;5027774;28;20518;-64
2024/01/10 02:54:42;;;;;;;30.40;14.37;;;;;;;;;;5026661;28;20818;-64
2024/01/10 02:57:08;;;;;;;28.00;14.77;;;;;;;;;;5027524;28;20287;-64
2024/01/10 02:59:34;;;;;;;27.37;13.30;;;;;;;;;;5027909;28;20046;-63
2024/01/10 03:02:00;;;;;;;28.13;13.73;;;;;;;;;;5027875;28;20042;-63
2024/01/10 03:04:26;;;;;;;25.80;13.30;;;;;;;;;;5028166;28;20322;-64
2024/01/10 03:06:52;;;;;;;24.97;12.47;;;;;;;;;;5027695;28;20575;-63
2024/01/10 03:09:18;;;;;;;28.40;14.00;;;;;;;;;;5027838;28;20053;-64
2024/01/10 03:11:44;;;;;;;28.00;13.40;;;;;;;;;;5027588;28;20546;-64
2024/01/10 03:14:11;;;;;;;28.93;13.93;;;;;;;;;;5027879;28;20048;-64
2024/01/10 03:16:37;;;;;;;28.17;13.23;;;;;;;;;;5027404;28;20045;-64
2024/01/10 03:19:04;;;;;;;23.60;12.70;;;;;;;;;;5027266;28;20281;-64
2024/01/10 03:21:30;;;;;;;24.57;12.47;;;;;;;;;;5028789;28;20288;-64
2024/01/10 03:23:56;;;;;;;28.60;12.97;;;;;;;;;;5030244;28;20280;-64
2024/01/10 03:26:22;;;;;;;23.13;12.53;;;;;;;;;;5031367;28;20367;-64
2024/01/10 03:28:48;;;;;;;25.73;13.20;;;;;;;;;;5031016;28;20292;-64
2024/01/10 03:31:15;;;;;;;26.73;12.80;;;;;;;;;;5031235;28;20737;-64
2024/01/10 03:33:41;;;;;;;26.17;12.37;;;;;;;;;;5031192;28;20291;-63
2024/01/10 03:36:07;;;;;;;29.93;14.03;;;;;;;;;;5030911;28;20871;-63
2024/01/10 03:38:33;;;;;;;26.83;12.73;;;;;;;;;;5030263;28;20304;-63
2024/01/10 03:40:59;;;;;;;24.70;12.43;;;;;;;;;;5030330;28;20670;-64
2024/01/10 03:43:25;;;;;;;25.33;12.93;;;;;;;;;;5031128;28;20042;-63
2024/01/10 03:45:51;;;;;;;25.33;12.60;;;;;;;;;;5031019;28;20116;-63
2024/01/10 03:48:17;;;;;;;24.60;12.73;;;;;;;;;;5030807;28;20137;-63
2024/01/10 03:50:43;;;;;;;28.23;14.83;;;;;;;;;;5030348;28;20391;-63
2024/01/10 03:53:09;;;;;;;29.73;13.70;;;;;;;;;;5030600;28;20041;-63
2024/01/10 03:55:35;;;;;;;25.80;12.73;;;;;;;;;;5030059;28;20127;-64
2024/01/10 03:58:01;;;;;;;28.63;13.80;;;;;;;;;;5030883;28;20044;-64
2024/01/10 04:00:27;;;;;;;25.57;13.07;;;;;;;;;;5030837;28;20076;-64
2024/01/10 04:02:53;;;;;;;28.67;13.27;;;;;;;;;;5029893;28;20328;-64
2024/01/10 04:05:20;;;;;;;28.70;14.67;;;;;;;;;;5029940;28;20041;-63
2024/01/10 04:07:46;;;;;;;23.23;12.90;;;;;;;;;;5030657;28;20291;-63
2024/01/10 04:10:14;;;;;;;26.80;12.77;;;;;;;;;;5030562;28;20288;-64
2024/01/10 04:12:46;;;;;;;26.17;12.77;;;;;;;;;;5030398;28;20786;-64
2024/01/10 04:15:12;;;;;;;25.57;13.53;;;;;;;;;;5030445;28;20320;-63
2024/01/10 04:17:38;;;;;;;31.20;14.40;;;;;;;;;;5029690;28;20288;-64
2024/01/10 04:20:05;;;;;;;24.43;13.73;;;;;;;;;;5030333;28;20292;-64
2024/01/10 04:22:31;;;;;;;29.37;13.50;;;;;;;;;;5029876;28;20304;-64
2024/01/10 04:24:58;;;;;;;29.57;13.60;;;;;;;;;;5029970;28;20381;-64
2024/01/10 04:27:24;;;;;;;24.33;13.13;;;;;;;;;;5030143;28;20284;-64
2024/01/10 04:29:50;;;;;;;26.63;13.53;;;;;;;;;;5030136;28;20288;-64
2024/01/10 04:32:16;;;;;;;28.10;13.13;;;;;;;;;;5028947;28;20295;-64
2024/01/10 04:34:42;;;;;;;27.20;14.23;;;;;;;;;;5028792;28;20442;-64
2024/01/10 04:37:08;;;;;;;26.17;12.77;;;;;;;;;;5028715;28;20077;-64
2024/01/10 04:39:35;;;;;;;29.93;14.70;;;;;;;;;;5029271;28;20380;-64
2024/01/10 04:42:01;;;;;;;29.23;14.23;;;;;;;;;;5029866;28;20295;-64
2024/01/10 04:44:27;;;;;;;24.13;13.20;;;;;;;;;;5030068;28;20302;-63
2024/01/10 04:46:54;;;;;;;23.67;12.33;;;;;;;;;;5029479;28;20646;-64
2024/01/10 04:49:20;;;;;;;28.10;14.10;;;;;;;;;;5030028;28;20053;-63
2024/01/10 04:51:46;;;;;;;33.07;13.93;;;;;;;;;;5029606;28;20291;-63
2024/01/10 04:54:13;;;;;;;23.63;11.73;;;;;;;;;;5029034;28;20415;-63
2024/01/10 04:56:39;;;;;;;29.70;13.03;;;;;;;;;;5029578;28;20284;-64
2024/01/10 04:59:05;;;;;;;25.97;13.33;;;;;;;;;;5028165;28;20785;-63
2024/01/10 05:01:31;;;;;;;27.07;13.37;;;;;;;;;;5029827;28;20296;-63
2024/01/10 05:03:57;;;;;;;27.03;13.03;;;;;;;;;;5027793;28;20308;-64
2024/01/10 05:06:23;;;;;;;27.33;12.83;;;;;;;;;;5028776;28;20365;-64
2024/01/10 05:08:50;;;;;;;23.87;12.17;;;;;;;;;;5029674;28;20342;-64
2024/01/10 05:11:16;;;;;;;25.83;13.17;;;;;;;;;;5028971;28;20342;-64
2024/01/10 05:13:45;;;;;;;29.90;13.27;;;;;;;;;;5029393;28;20365;-64
2024/01/10 05:16:11;;;;;;;25.63;12.60;;;;;;;;;;5028701;28;20299;-64
2024/01/10 05:18:37;;;;;;;25.30;12.57;;;;;;;;;;5028638;28;20292;-64
2024/01/10 05:21:03;;;;;;;23.87;11.17;;;;;;;;;;5029210;28;20052;-64
2024/01/10 05:23:30;;;;;;;20.27;12.27;;;;;;;;;;5029002;28;20721;-64
2024/01/10 05:25:56;;;;;;;22.10;12.17;;;;;;;;;;5028663;28;20288;-63
2024/01/10 05:28:22;;;;;;;25.47;13.57;;;;;;;;;;5028159;28;20864;-64
2024/01/10 05:30:48;;;;;;;24.63;13.53;;;;;;;;;;5027805;28;20300;-64
2024/01/10 05:33:14;;;;;;;27.30;13.03;;;;;;;;;;5028305;28;20292;-64
2024/01/10 05:35:40;;;;;;;27.37;13.67;;;;;;;;;;5029056;28;20144;-64
2024/01/10 05:38:06;;;;;;;24.77;12.63;;;;;;;;;;5028329;28;20042;-64
2024/01/10 05:40:32;;;;;;;28.67;14.63;;;;;;;;;;5029213;28;20509;-64
2024/01/10 05:43:02;;;;;;;31.20;13.97;;;;;;;;;;5027592;28;20291;-63
2024/01/10 05:45:28;;;;;;;28.03;13.37;;;;;;;;;;5028050;28;20292;-64
2024/01/10 05:47:54;;;;;;;29.07;12.67;;;;;;;;;;5028561;28;20292;-63
2024/01/10 05:50:20;;;;;;;29.90;15.17;;;;;;;;;;5028724;28;20375;-64
2024/01/10 05:52:46;;;;;;;29.17;13.67;;;;;;;;;;5028546;28;20295;-64
2024/01/10 05:55:12;;;;;;;25.53;13.80;;;;;;;;;;5028784;28;20316;-64
2024/01/10 05:57:39;;;;;;;29.23;13.83;;;;;;;;;;5028311;28;20280;-64
2024/01/10 06:00:09;;;;;;;24.43;14.13;;;;;;;;;;5027780;28;20300;-63
2024/01/10 06:02:38;;;;;;;28.20;14.43;;;;;;;;;;5027637;28;20901;-63
2024/01/10 06:05:06;;;;;;;26.13;14.00;;;;;;;;;;5028451;28;20832;-64
2024/01/10 06:07:32;;;;;;;27.60;14.90;;;;;;;;;;5028494;28;20284;-63
2024/01/10 06:09:58;;;;;;;33.77;15.80;;;;;;;;;;5028262;28;20350;-64
2024/01/10 06:12:25;;;;;;;30.43;15.50;;;;;;;;;;5028647;28;20342;-64
2024/01/10 06:14:51;;;;;;;28.20;14.80;;;;;;;;;;5027660;28;20733;-64
2024/01/10 06:17:18;;;;;;;30.10;15.80;;;;;;;;;;5027940;28;20345;-64
2024/01/10 06:19:44;;;;;;;31.10;14.97;;;;;;;;;;5027043;28;20292;-64
2024/01/10 06:22:13;;;;;;;31.30;14.93;;;;;;;;;;5027301;28;20323;-64
2024/01/10 06:24:40;;;;;;;34.20;17.47;;;;;;;;;;5027626;28;20491;-64
2024/01/10 06:27:06;;;;;;;34.73;16.93;;;;;;;;;;5028638;28;20292;-64
2024/01/10 06:29:33;;;;;;;33.30;16.60;;;;;;;;;;5024165;28;20427;-64
2024/01/10 06:32:01;;;;;;;26.90;15.40;;;;;;;;;;5027097;28;20315;-63
2024/01/10 06:34:27;;;;;;;36.43;16.87;;;;;;;;;;5028164;28;20682;-64
2024/01/10 06:36:53;;;;;;;33.43;15.20;;;;;;;;;;5027280;28;20719;-64
2024/01/10 06:39:19;;;;;;;35.27;17.37;;;;;;;;;;5028560;28;20280;-64
2024/01/10 06:41:49;;;;;;;31.83;15.70;;;;;;;;;;5027887;28;20492;-63
2024/01/10 06:44:17;;;;;;;60.17;17.13;;;;;;;;;;5027554;28;20300;-64
2024/01/10 06:46:43;;;;;;;29.30;14.83;;;;;;;;;;5028202;28;20292;-64
2024/01/10 06:49:09;;;;;;;31.73;18.67;;;;;;;;;;5028177;28;20332;-64
2024/01/10 06:51:35;;;;;;;37.60;15.10;;;;;;;;;;5027113;28;20292;-64
2024/01/10 06:54:05;;;;;;;41.70;17.47;;;;;;;;;;5027838;28;20848;-64
2024/01/10 06:56:32;;;;;;;34.87;16.37;;;;;;;;;;5029212;28;20587;-63
2024/01/10 06:58:58;;;;;;;31.63;16.07;;;;;;;;;;5030606;28;20295;-64
2024/01/10 07:01:24;;;;;;;37.53;18.23;;;;;;;;;;5030316;28;20304;-64
2024/01/10 07:03:51;;;;;;;32.00;16.87;;;;;;;;;;5031287;28;20316;-63
2024/01/10 07:06:17;;;;;;;33.40;15.67;;;;;;;;;;5030164;28;20725;-63
2024/01/10 07:08:46;;;;;;;32.53;16.13;;;;;;;;;;5030761;28;20288;-64
2024/01/10 07:11:12;;;;;;;28.07;14.67;;;;;;;;;;5012118;28;20303;-64
2024/01/10 07:13:39;;;;;;;36.07;16.50;;;;;;;;;;5010957;28;20323;-64
2024/01/10 07:16:05;;;;;;;30.67;16.60;;;;;;;;;;5012151;28;20720;-63
2024/01/10 07:18:31;;;;;;;32.53;14.90;;;;;;;;;;5024835;28;20362;-64
2024/01/10 07:20:57;;;;;;;46.87;16.57;;;;;;;;;;5030322;28;20713;-63
2024/01/10 07:23:23;;;;;;;28.93;14.13;;;;;;;;;;5031400;28;20280;-64
2024/01/10 07:25:49;;;;;;;34.57;14.83;;;;;;;;;;5030657;28;20053;-64
2024/01/10 07:28:16;;;;;;;26.67;13.90;;;;;;;;;;5030263;28;20085;-64
2024/01/10 07:30:42;;;;;;;28.73;14.77;;;;;;;;;;5031204;28;20284;-64
2024/01/10 07:33:08;;;;;;;32.57;15.90;;;;;;;;;;5030857;28;20687;-64
2024/01/10 07:35:34;;;;;;;29.60;15.70;;;;;;;;;;5030609;28;21262;-64
2024/01/10 07:38:00;;;;;;;32.27;15.00;;;;;;;;;;5030324;28;20674;-64
2024/01/10 07:40:26;;;;;;;35.13;16.20;;;;;;;;;;5030769;28;20288;-63
2024/01/10 07:42:52;;;;;;;31.03;16.27;;;;;;;;;;5030105;28;20288;-64
2024/01/10 07:45:18;;;;;;;32.53;15.67;;;;;;;;;;5030453;28;20080;-64
2024/01/10 07:47:46;;;;;;;29.90;16.40;;;;;;;;;;5030861;28;20341;-64
2024/01/10 07:50:14;;;;;;;32.47;16.87;;;;;;;;;;5028946;28;20675;-63
2024/01/10 07:52:40;;;;;;;30.03;15.87;;;;;;;;;;5029586;28;20319;-63
2024/01/10 07:55:06;;;;;;;25.70;11.60;;;;;;;;;;5026454;28;20316;-64
2024/01/10 07:57:36;;;;;;;29.87;16.30;;;;;;;;;;5030682;28;20280;-64
2024/01/10 08:00:03;;;;;;;35.03;18.07;;;;;;;;;;5030728;28;20379;-64
2024/01/10 08:02:33;;;;;;;27.27;13.50;;;;;;;;;;5030463;28;20292;-64
2024/01/10 08:05:00;;;;;;;28.47;14.20;;;;;;;;;;5027289;28;20730;-63
2024/01/10 08:07:26;;;;;;;29.33;16.60;;;;;;;;;;5028817;28;20304;-63
2024/01/10 08:09:52;;;;;;;29.60;15.47;;;;;;;;;;5030460;28;20284;-64
2024/01/10 08:12:18;;;;;;;30.37;15.27;;;;;;;;;;5040628;28;20343;-63
2024/01/10 08:14:45;;;;;;;31.40;15.97;;;;;;;;;;5030157;28;20053;-63
2024/01/10 08:17:12;;;;;;;38.20;16.40;;;;;;;;;;5030609;28;20312;-63
2024/01/10 08:19:38;;;;;;;26.53;13.40;;;;;;;;;;5029625;28;20307;-63
2024/01/10 08:22:04;;;;;;;30.83;15.63;;;;;;;;;;5030148;28;20363;-63
2024/01/10 08:24:30;;;;;;;28.23;16.33;;;;;;;;;;5030134;28;20288;-64
2024/01/10 08:26:56;;;;;;;29.13;14.73;;;;;;;;;;5030561;28;20288;-63
2024/01/10 08:29:22;;;;;;;61.03;26.87;;;;;;;;;;5029684;28;20288;-64
2024/01/10 08:31:48;;;;;;;27.83;14.47;;;;;;;;;;5029846;28;20300;-64
2024/01/10 08:34:15;;;;;;;32.37;15.13;;;;;;;;;;5029760;28;20770;-64
2024/01/10 08:36:41;;;;;;;40.23;21.63;;;;;;;;;;5029784;28;20291;-63
2024/01/10 08:39:07;;;;;;;43.27;22.03;;;;;;;;;;5030224;28;20774;-63
2024/01/10 08:41:36;;;;;;;32.43;14.93;;;;;;;;;;5028413;28;20060;-63
2024/01/10 08:44:02;;;;;;;52.23;26.00;;;;;;;;;;5028536;28;20308;-63
2024/01/10 08:46:28;;;;;;;26.00;14.50;;;;;;;;;;5028540;28;20304;-63
2024/01/10 08:48:54;;;;;;;31.87;17.77;;;;;;;;;;5028774;28;20295;-63
2024/01/10 08:51:20;;;;;;;23.77;13.33;;;;;;;;;;5029192;28;20290;-63
2024/01/10 08:53:46;;;;;;;33.33;19.77;;;;;;;;;;5029108;28;20284;-63
2024/01/10 08:56:12;;;;;;;27.00;14.43;;;;;;;;;;5029491;28;20284;-63
2024/01/10 08:58:38;;;;;;;30.83;14.93;;;;;;;;;;5028910;28;20294;-63
2024/01/10 09:01:04;;;;;;;26.30;13.83;;;;;;;;;;5028782;28;20041;-63
2024/01/10 09:03:30;;;;;;;24.60;14.03;;;;;;;;;;5029078;28;20280;-63
2024/01/10 09:05:56;;;;;;;29.53;15.53;;;;;;;;;;5028685;28;20358;-63
2024/01/10 09:08:23;;;;;;;30.83;15.67;;;;;;;;;;5026846;28;20714;-63
2024/01/10 09:10:49;;;;;;;26.47;14.83;;;;;;;;;;5028608;28;20347;-63
2024/01/10 09:13:15;;;;;;;27.23;14.47;;;;;;;;;;5028246;28;20288;-63
2024/01/10 09:15:41;;;;;;;24.17;13.40;;;;;;;;;;5027331;28;20312;-63
2024/01/10 09:18:08;;;;;;;25.90;13.93;;;;;;;;;;5027698;28;20304;-63
2024/01/10 09:20:34;;;;;;;22.50;13.27;;;;;;;;;;5027013;28;20307;-63
2024/01/10 09:23:00;;;;;;;23.23;13.43;;;;;;;;;;5023141;28;20677;-64
2024/01/10 09:25:26;;;;;;;23.87;13.57;;;;;;;;;;5028682;28;20280;-64
2024/01/10 09:27:52;;;;;;;22.93;12.80;;;;;;;;;;5027798;28;20132;-64
2024/01/10 09:30:18;;;;;;;19.20;9.10;;;;;;;;;;5026607;28;20438;-64
2024/01/10 09:32:44;;;;;;;25.27;13.93;;;;;;;;;;5027904;28;20124;-64
2024/01/10 09:35:10;;;;;;;24.03;12.60;;;;;;;;;;5027835;28;20316;-64
2024/01/10 09:37:36;;;;;;;21.73;12.07;;;;;;;;;;5027154;28;20289;-64
2024/01/10 09:40:03;;;;;;;20.97;11.90;;;;;;;;;;5026930;28;20284;-63
2024/01/10 09:42:31;;;;;;;21.63;13.03;;;;;;;;;;5028145;28;20479;-63
2024/01/10 09:44:57;;;;;;;22.33;12.63;;;;;;;;;;5026928;28;20694;-64
2024/01/10 09:47:24;;;;;;;14.37;7.97;;;;;;;;;;5028012;28;20625;-63
2024/01/10 09:49:50;;;;;;;20.00;10.03;;;;;;;;;;5025110;28;20841;-63
2024/01/10 09:52:27;;;;;;;22.67;12.80;;;;;;;;;;5028338;28;20354;-63
2024/01/10 09:54:57;;;;;;;20.47;11.77;;;;;;;;;;5026831;28;20474;-63
2024/01/10 09:57:24;;;;;;;20.50;11.90;;;;;;;;;;5026965;28;20399;-64
2024/01/10 09:59:54;;;;;;;21.37;11.77;;;;;;;;;;5027424;28;20667;-64
2024/01/10 10:02:22;;;;;;;17.60;10.10;;;;;;;;;;5026992;28;20328;-64
2024/01/10 10:05:08;;;;;;;18.60;11.67;;;;;;;;;;5027487;28;20291;-64
2024/01/10 10:07:44;;;;;;;23.93;12.13;;;;;;;;;;5027287;28;20284;-64
2024/01/10 10:10:12;;;;;;;16.37;10.90;;;;;;;;;;5027639;28;21720;-64
2024/01/10 10:12:44;;;;;;;20.57;11.23;;;;;;;;;;5027109;28;20307;-64
2024/01/10 10:15:14;;;;;;;20.10;11.43;;;;;;;;;;5024938;28;20312;-64
2024/01/10 10:17:46;;;;;;;16.57;10.37;;;;;;;;;;5025892;28;20415;-64
2024/01/10 10:20:13;;;;;;;17.87;10.17;;;;;;;;;;5023915;28;20300;-64
2024/01/10 10:22:39;;;;;;;17.50;9.63;;;;;;;;;;5023907;28;20328;-64
2024/01/10 10:25:05;;;;;;;17.63;10.13;;;;;;;;;;5027210;28;20291;-64
2024/01/10 10:27:32;;;;;;;16.60;10.23;;;;;;;;;;5026607;28;20300;-64
2024/01/10 10:29:58;;;;;;;17.60;9.37;;;;;;;;;;5027138;28;20295;-64
2024/01/10 10:32:24;;;;;;;15.27;8.97;;;;;;;;;;5030711;28;20288;-64
2024/01/10 10:34:50;;;;;;;14.50;9.53;;;;;;;;;;5031261;28;20319;-64
2024/01/10 10:37:16;;;;;;;19.13;8.67;;;;;;;;;;5029721;28;20102;-64
2024/01/10 10:39:42;;;;;;;15.17;9.43;;;;;;;;;;5031186;28;20338;-64
2024/01/10 10:42:08;;;;;;;14.90;9.23;;;;;;;;;;5028873;28;20705;-64
2024/01/10 10:44:36;;;;;;;13.23;8.30;;;;;;;;;;5027516;28;20061;-65
2024/01/10 10:47:05;;;;;;;15.70;8.50;;;;;;;;;;5030307;28;20512;-64
2024/01/10 10:49:32;;;;;;;15.80;9.50;;;;;;;;;;5031188;28;20288;-64
2024/01/10 10:52:00;;;;;;;14.20;8.00;;;;;;;;;;5029794;28;20299;-65
2024/01/10 10:54:31;;;;;;;12.57;8.17;;;;;;;;;;5031578;28;20809;-65
2024/01/10 10:56:58;;;;;;;13.20;7.77;;;;;;;;;;5029617;28;20292;-64
2024/01/10 10:59:26;;;;;;;11.40;7.77;;;;;;;;;;5030349;28;20379;-64
2024/01/10 11:01:52;;;;;;;13.83;7.73;;;;;;;;;;5030662;28;20295;-64
2024/01/10 11:04:19;;;;;;;14.50;8.57;;;;;;;;;;5029743;28;20299;-65
2024/01/10 11:06:45;;;;;;;14.77;8.83;;;;;;;;;;5031506;28;20292;-65
2024/01/10 11:09:14;;;;;;;16.53;9.50;;;;;;;;;;5030477;28;20045;-64
2024/01/10 11:11:51;;;;;;;13.70;7.40;;;;;;;;;;5030800;28;20125;-64
2024/01/10 11:14:42;;;;;;;12.23;7.83;;;;;;;;;;5030153;28;20323;-64
2024/01/10 11:17:18;;;;;;;12.87;7.87;;;;;;;;;;5030362;28;20511;-64
2024/01/10 11:19:59;;;;;;;13.93;8.20;;;;;;;;;;5030148;28;20053;-64
2024/01/10 11:22:44;;;;;;;14.30;7.93;;;;;;;;;;5030358;28;20408;-64
2024/01/10 11:25:10;;;;;;;13.00;8.20;;;;;;;;;;5029275;28;20384;-64
2024/01/10 11:27:37;;;;;;;13.53;7.93;;;;;;;;;;5030789;28;20041;-64
2024/01/10 11:30:05;;;;;;;11.17;7.80;;;;;;;;;;5029865;28;20136;-64
2024/01/10 11:32:35;;;;;;;10.27;6.90;;;;;;;;;;5030204;28;20053;-63
2024/01/10 11:35:01;;;;;;;13.93;8.30;;;;;;;;;;5030404;28;20045;-64
2024/01/10 11:37:40;;;;;;;11.50;6.57;;;;;;;;;;5027276;28;20499;-63
2024/01/10 11:40:09;;;;;;;12.90;7.53;;;;;;;;;;5027381;28;20456;-63
2024/01/10 11:42:45;;;;;;;11.93;7.53;;;;;;;;;;5030186;28;20057;-63
2024/01/10 11:45:33;;;;;;;13.63;7.97;;;;;;;;;;5030213;28;20494;-63
2024/01/10 11:48:00;;;;;;;14.33;7.80;;;;;;;;;;5028495;28;20103;-63
2024/01/10 11:50:26;;;;;;;15.40;7.37;;;;;;;;;;5028996;28;20053;-63
2024/01/10 11:52:55;;;;;;;13.40;8.33;;;;;;;;;;5030369;28;20120;-63
2024/01/10 11:55:40;;;;;;;12.10;8.10;;;;;;;;;;5025652;28;20056;-63
2024/01/10 11:58:10;;;;;;;14.07;7.57;;;;;;;;;;5029733;28;20041;-63
2024/01/10 12:00:36;;;;;;;12.00;6.73;;;;;;;;;;5025713;28;20504;-62
2024/01/10 12:03:03;;;;;;;12.00;7.07;;;;;;;;;;5028928;28;20462;-62
2024/01/10 12:05:29;;;;;;;14.77;7.97;;;;;;;;;;5028558;28;20049;-62
2024/01/10 12:07:56;;;;;;;11.53;6.47;;;;;;;;;;5027739;28;20049;-62
2024/01/10 12:10:22;;;;;;;13.87;7.33;;;;;;;;;;5028227;28;20053;-62
2024/01/10 12:12:48;;;;;;;12.63;7.27;;;;;;;;;;5028339;28;20045;-62
2024/01/10 12:15:15;;;;;;;53.80;34.60;;;;;;;;;;5028279;28;20499;-62
2024/01/10 12:17:41;;;;;;;21.73;15.10;;;;;;;;;;5028444;28;20549;-63
2024/01/10 12:20:07;;;;;;;13.93;7.70;;;;;;;;;;5028618;28;20076;-62
2024/01/10 12:22:33;;;;;;;12.77;9.43;;;;;;;;;;5028817;28;20041;-62
2024/01/10 12:25:05;;;;;;;10.63;6.83;;;;;;;;;;5029991;28;20120;-62
2024/01/10 12:27:31;;;;;;;12.23;7.17;;;;;;;;;;5030107;28;20099;-62
2024/01/10 12:29:58;;;;;;;9.60;6.63;;;;;;;;;;5029934;28;20077;-62
2024/01/10 12:32:24;;;;;;;12.80;11.10;;;;;;;;;;5029900;28;20427;-62
2024/01/10 12:34:54;;;;;;;12.10;10.80;;;;;;;;;;5028933;28;20179;-62
2024/01/10 12:37:20;;;;;;;11.23;6.50;;;;;;;;;;5029435;28;20208;-62
2024/01/10 12:39:46;;;;;;;11.60;6.63;;;;;;;;;;5030006;28;20045;-62
2024/01/10 12:42:12;;;;;;;11.83;6.33;;;;;;;;;;5029242;28;20055;-62
2024/01/10 12:44:38;;;;;;;14.33;6.27;;;;;;;;;;5029577;28;20046;-62
2024/01/10 12:47:04;;;;;;;9.53;5.70;;;;;;;;;;5029686;28;20072;-62
2024/01/10 12:49:31;;;;;;;9.10;5.40;;;;;;;;;;5029731;28;20050;-62
2024/01/10 12:51:57;;;;;;;10.83;6.83;;;;;;;;;;5029082;28;20515;-63
2024/01/10 12:54:23;;;;;;;10.57;6.50;;;;;;;;;;5029249;28;20049;-62
2024/01/10 12:56:50;;;;;;;14.47;6.83;;;;;;;;;;5028833;28;20045;-62
2024/01/10 12:59:16;;;;;;;12.43;6.97;;;;;;;;;;5028984;28;20515;-62
2024/01/10 13:01:42;;;;;;;13.53;7.37;;;;;;;;;;5029697;28;20111;-63
2024/01/10 13:04:08;;;;;;;11.67;7.17;;;;;;;;;;5029405;28;20045;-62
2024/01/10 13:06:34;;;;;;;12.93;7.60;;;;;;;;;;5028291;28;20667;-62
2024/01/10 13:09:00;;;;;;;12.30;7.33;;;;;;;;;;5029053;28;20081;-62
2024/01/10 13:11:26;;;;;;;13.73;7.03;;;;;;;;;;5029197;28;20041;-62
2024/01/10 13:13:52;;;;;;;14.17;7.90;;;;;;;;;;5029086;28;20399;-62
2024/01/10 13:16:19;;;;;;;12.73;7.13;;;;;;;;;;5028964;28;20100;-62
2024/01/10 13:18:45;;;;;;;12.87;7.10;;;;;;;;;;5029007;28;20400;-62
2024/01/10 13:21:11;;;;;;;14.30;8.37;;;;;;;;;;5027431;28;20056;-63
2024/01/10 13:23:37;;;;;;;13.23;6.80;;;;;;;;;;5028684;28;20096;-63
2024/01/10 13:26:03;;;;;;;11.30;7.13;;;;;;;;;;5028831;28;20115;-62
2024/01/10 13:28:29;;;;;;;11.13;6.33;;;;;;;;;;5029049;28;20049;-63
2024/01/10 13:30:56;;;;;;;11.97;6.70;;;;;;;;;;5028273;28;20061;-63
2024/01/10 13:33:22;;;;;;;13.30;7.10;;;;;;;;;;5028683;28;20104;-63
2024/01/10 13:35:49;;;;;;;12.07;6.47;;;;;;;;;;5029147;28;20107;-63
2024/01/10 13:38:15;;;;;;;10.50;7.23;;;;;;;;;;5028567;28;20049;-62
2024/01/10 13:40:41;;;;;;;10.33;6.63;;;;;;;;;;5028904;28;20046;-63
2024/01/10 13:43:07;;;;;;;11.23;6.87;;;;;;;;;;5028869;28;20507;-63
2024/01/10 13:45:33;;;;;;;11.07;6.50;;;;;;;;;;5027799;28;20057;-63
2024/01/10 13:48:00;;;;;;;12.23;6.50;;;;;;;;;;5028509;28;20046;-62
2024/01/10 13:50:27;;;;;;;15.50;9.57;;;;;;;;;;5028976;28;20084;-62
2024/01/10 13:52:53;;;;;;;12.53;8.47;;;;;;;;;;5028577;28;20611;-62
2024/01/10 13:55:20;;;;;;;13.77;9.53;;;;;;;;;;5028147;28;20099;-62
2024/01/10 13:57:46;;;;;;;12.17;8.43;;;;;;;;;;5028523;28;20087;-62
2024/01/10 14:00:14;;;;;;;12.93;8.23;;;;;;;;;;5028010;28;20052;-62
2024/01/10 14:02:40;;;;;;;11.73;7.57;;;;;;;;;;5028804;28;20041;-62
2024/01/10 14:05:07;;;;;;;11.17;8.00;;;;;;;;;;5028038;28;20045;-62
2024/01/10 14:07:33;;;;;;;10.73;6.43;;;;;;;;;;5028001;28;20443;-62
2024/01/10 14:09:59;;;;;;;9.77;6.10;;;;;;;;;;5027620;28;20053;-62
2024/01/10 14:12:25;;;;;;;9.20;5.97;;;;;;;;;;5028562;28;20052;-62
2024/01/10 14:14:52;;;;;;;10.67;6.27;;;;;;;;;;5028480;28;20045;-62
2024/01/10 14:17:18;;;;;;;9.43;5.83;;;;;;;;;;5027629;28;20127;-62
2024/01/10 14:19:44;;;;;;;12.77;7.33;;;;;;;;;;5028320;28;20480;-62